Terminal Aerodrome Forecast
Issued by NWS Upton, NY

Home | Current Version | Previous Version | Text Only | Print | Product List | Glossary On
Versions: 1 2 3 4 5 6 7 8 9 10 11 12 13 14 15 16 17 18 19 20 21 22 23 24 25 26 27 28
455
FTUS41 KOKX 011126
TAFBDR
TAF
KBDR 011126Z 0112/0212 11008KT 6SM -SHRA OVC060
     FM011700 11010KT 4SM -RA OVC040
     FM011900 09012KT 2SM -RA BR OVC015
     FM012200 07011KT 2SM -SHRA BR OVC007
     FM020400 05007KT 2SM -SHRADZ BR OVC004=

USA.gov is the U.S. government's official web portal to all federal, state and local government web resources and services.